sensor_id;sensor_type;location;lat;lon;timestamp;temperature;humidity
35541;DHT22;21650;48.840;9.162;2023-04-24T00:01:40;11.70;99.90
35541;DHT22;21650;48.840;9.162;2023-04-24T00:04:06;11.70;99.90
35541;DHT22;21650;48.840;9.162;2023-04-24T00:06:32;11.80;99.90
35541;DHT22;21650;48.840;9.162;2023-04-24T00:09:00;11.80;99.90
35541;DHT22;21650;48.840;9.162;2023-04-24T00:11:26;11.80;99.90
35541;DHT22;21650;48.840;9.162;2023-04-24T00:13:52;11.90;99.90
35541;DHT22;21650;48.840;9.162;2023-04-24T00:16:18;11.90;99.90
35541;DHT22;21650;48.840;9.162;2023-04-24T00:18:44;11.90;99.90
35541;DHT22;21650;48.840;9.162;2023-04-24T00:21:16;11.90;99.90
35541;DHT22;21650;48.840;9.162;2023-04-24T00:23:43;12.00;99.90
35541;DHT22;21650;48.840;9.162;2023-04-24T00:26:09;12.00;99.90
35541;DHT22;21650;48.840;9.162;2023-04-24T00:28:35;12.00;99.90
35541;DHT22;21650;48.840;9.162;2023-04-24T00:31:00;11.90;99.90
35541;DHT22;21650;48.840;9.162;2023-04-24T00:33:26;12.00;99.90
35541;DHT22;21650;48.840;9.162;2023-04-24T00:35:52;11.90;99.90
35541;DHT22;21650;48.840;9.162;2023-04-24T00:38:18;12.00;99.90
35541;DHT22;21650;48.840;9.162;2023-04-24T00:40:43;12.00;99.90
35541;DHT22;21650;48.840;9.162;2023-04-24T00:43:09;12.00;99.90
35541;DHT22;21650;48.840;9.162;2023-04-24T00:45:35;12.10;99.90
35541;DHT22;21650;48.840;9.162;2023-04-24T00:48:02;12.00;99.90
35541;DHT22;21650;48.840;9.162;2023-04-24T00:50:28;12.00;99.90
35541;DHT22;21650;48.840;9.162;2023-04-24T00:52:54;12.00;99.90
35541;DHT22;21650;48.840;9.162;2023-04-24T00:55:19;12.00;99.90
35541;DHT22;21650;48.840;9.162;2023-04-24T00:57:45;12.00;99.90
35541;DHT22;21650;48.840;9.162;2023-04-24T01:00:12;12.00;99.90
35541;DHT22;21650;48.840;9.162;2023-04-24T01:02:39;12.10;99.90
35541;DHT22;21650;48.840;9.162;2023-04-24T01:05:09;12.10;99.90
35541;DHT22;21650;48.840;9.162;2023-04-24T01:07:35;12.10;99.90
35541;DHT22;21650;48.840;9.162;2023-04-24T01:10:02;12.00;99.90
35541;DHT22;21650;48.840;9.162;2023-04-24T01:12:27;12.00;99.90
35541;DHT22;21650;48.840;9.162;2023-04-24T01:14:54;12.00;99.90
35541;DHT22;21650;48.840;9.162;2023-04-24T01:17:20;12.10;99.90
35541;DHT22;21650;48.840;9.162;2023-04-24T01:19:46;12.10;99.90
35541;DHT22;21650;48.840;9.162;2023-04-24T01:22:13;12.00;99.90
35541;DHT22;21650;48.840;9.162;2023-04-24T01:24:40;12.10;99.90
35541;DHT22;21650;48.840;9.162;2023-04-24T01:27:06;12.10;99.90
35541;DHT22;21650;48.840;9.162;2023-04-24T01:29:32;12.00;99.90
35541;DHT22;21650;48.840;9.162;2023-04-24T01:31:58;11.90;99.90
35541;DHT22;21650;48.840;9.162;2023-04-24T01:34:24;11.90;99.90
35541;DHT22;21650;48.840;9.162;2023-04-24T01:36:49;11.90;99.90
35541;DHT22;21650;48.840;9.162;2023-04-24T01:39:15;11.90;99.90
35541;DHT22;21650;48.840;9.162;2023-04-24T01:41:42;11.80;99.90
35541;DHT22;21650;48.840;9.162;2023-04-24T01:44:07;11.80;99.90
35541;DHT22;21650;48.840;9.162;2023-04-24T01:46:33;11.80;99.90
35541;DHT22;21650;48.840;9.162;2023-04-24T01:49:01;11.80;99.90
35541;DHT22;21650;48.840;9.162;2023-04-24T01:51:27;11.80;99.90
35541;DHT22;21650;48.840;9.162;2023-04-24T01:53:52;11.70;99.90
35541;DHT22;21650;48.840;9.162;2023-04-24T01:56:20;11.70;99.90
35541;DHT22;21650;48.840;9.162;2023-04-24T01:58:46;11.70;99.90
35541;DHT22;21650;48.840;9.162;2023-04-24T02:01:18;11.70;99.90
35541;DHT22;21650;48.840;9.162;2023-04-24T02:03:44;11.70;99.90
35541;DHT22;21650;48.840;9.162;2023-04-24T02:06:09;11.70;99.90
35541;DHT22;21650;48.840;9.162;2023-04-24T02:08:35;11.70;99.90
35541;DHT22;21650;48.840;9.162;2023-04-24T02:11:01;11.60;99.90
35541;DHT22;21650;48.840;9.162;2023-04-24T02:13:27;11.60;99.90
35541;DHT22;21650;48.840;9.162;2023-04-24T02:15:53;11.50;99.90
35541;DHT22;21650;48.840;9.162;2023-04-24T02:18:18;11.60;99.90
35541;DHT22;21650;48.840;9.162;2023-04-24T02:20:44;11.50;99.90
35541;DHT22;21650;48.840;9.162;2023-04-24T02:23:09;11.50;99.90
35541;DHT22;21650;48.840;9.162;2023-04-24T02:25:35;11.60;99.90
35541;DHT22;21650;48.840;9.162;2023-04-24T02:28:00;11.60;99.90
35541;DHT22;21650;48.840;9.162;2023-04-24T02:30:26;11.60;99.90
35541;DHT22;21650;48.840;9.162;2023-04-24T02:32:52;11.60;99.90
35541;DHT22;21650;48.840;9.162;2023-04-24T02:35:17;11.60;99.90
35541;DHT22;21650;48.840;9.162;2023-04-24T02:37:43;11.70;99.90
35541;DHT22;21650;48.840;9.162;2023-04-24T02:40:09;11.70;99.90
35541;DHT22;21650;48.840;9.162;2023-04-24T02:42:34;11.70;99.90
35541;DHT22;21650;48.840;9.162;2023-04-24T02:45:00;11.70;99.90
35541;DHT22;21650;48.840;9.162;2023-04-24T02:47:26;11.70;99.90
35541;DHT22;21650;48.840;9.162;2023-04-24T02:49:51;11.60;99.90
35541;DHT22;21650;48.840;9.162;2023-04-24T02:52:17;11.50;99.90
35541;DHT22;21650;48.840;9.162;2023-04-24T02:54:43;11.60;99.90
35541;DHT22;21650;48.840;9.162;2023-04-24T02:57:09;11.50;99.90
35541;DHT22;21650;48.840;9.162;2023-04-24T02:59:34;11.50;99.90
35541;DHT22;21650;48.840;9.162;2023-04-24T03:02:00;11.50;99.90
35541;DHT22;21650;48.840;9.162;2023-04-24T03:04:26;11.40;99.90
35541;DHT22;21650;48.840;9.162;2023-04-24T03:06:52;11.40;99.90
35541;DHT22;21650;48.840;9.162;2023-04-24T03:09:20;11.40;99.90
35541;DHT22;21650;48.840;9.162;2023-04-24T03:11:46;11.40;99.90
35541;DHT22;21650;48.840;9.162;2023-04-24T03:14:11;11.30;99.90
35541;DHT22;21650;48.840;9.162;2023-04-24T03:16:37;11.30;99.90
35541;DHT22;21650;48.840;9.162;2023-04-24T03:19:03;11.30;99.90
35541;DHT22;21650;48.840;9.162;2023-04-24T03:21:28;11.30;99.90
35541;DHT22;21650;48.840;9.162;2023-04-24T03:23:54;11.20;99.90
35541;DHT22;21650;48.840;9.162;2023-04-24T03:26:20;11.20;99.90
35541;DHT22;21650;48.840;9.162;2023-04-24T03:28:45;11.10;99.90
35541;DHT22;21650;48.840;9.162;2023-04-24T03:31:11;11.10;99.90
35541;DHT22;21650;48.840;9.162;2023-04-24T03:33:36;11.10;99.90
35541;DHT22;21650;48.840;9.162;2023-04-24T03:36:02;11.10;99.90
35541;DHT22;21650;48.840;9.162;2023-04-24T03:38:28;11.10;99.90
35541;DHT22;21650;48.840;9.162;2023-04-24T03:40:53;11.00;99.90
35541;DHT22;21650;48.840;9.162;2023-04-24T03:43:19;11.00;99.90
35541;DHT22;21650;48.840;9.162;2023-04-24T03:45:45;11.00;99.90
35541;DHT22;21650;48.840;9.162;2023-04-24T03:48:10;11.00;99.90
35541;DHT22;21650;48.840;9.162;2023-04-24T03:50:36;10.90;99.90
35541;DHT22;21650;48.840;9.162;2023-04-24T03:53:01;10.90;99.90
35541;DHT22;21650;48.840;9.162;2023-04-24T03:55:27;10.80;99.90
35541;DHT22;21650;48.840;9.162;2023-04-24T03:57:52;10.80;99.90
35541;DHT22;21650;48.840;9.162;2023-04-24T04:00:18;10.80;99.90
35541;DHT22;21650;48.840;9.162;2023-04-24T04:02:44;10.80;99.90
35541;DHT22;21650;48.840;9.162;2023-04-24T04:05:10;10.80;99.90
35541;DHT22;21650;48.840;9.162;2023-04-24T04:07:36;10.80;99.90
35541;DHT22;21650;48.840;9.162;2023-04-24T04:10:01;10.80;99.90
35541;DHT22;21650;48.840;9.162;2023-04-24T04:12:27;10.90;99.90
35541;DHT22;21650;48.840;9.162;2023-04-24T04:14:53;10.90;99.90
35541;DHT22;21650;48.840;9.162;2023-04-24T04:17:18;11.00;99.90
35541;DHT22;21650;48.840;9.162;2023-04-24T04:19:44;10.90;99.90
35541;DHT22;21650;48.840;9.162;2023-04-24T04:22:10;11.00;99.90
35541;DHT22;21650;48.840;9.162;2023-04-24T04:24:35;11.00;99.90
35541;DHT22;21650;48.840;9.162;2023-04-24T04:27:04;10.70;99.90
35541;DHT22;21650;48.840;9.162;2023-04-24T04:29:30;10.50;99.90
35541;DHT22;21650;48.840;9.162;2023-04-24T04:31:57;10.50;99.90
35541;DHT22;21650;48.840;9.162;2023-04-24T04:34:22;10.30;99.90
35541;DHT22;21650;48.840;9.162;2023-04-24T04:36:48;10.20;99.90
35541;DHT22;21650;48.840;9.162;2023-04-24T04:39:14;10.30;99.90
35541;DHT22;21650;48.840;9.162;2023-04-24T04:41:41;10.30;99.90
35541;DHT22;21650;48.840;9.162;2023-04-24T04:44:07;10.30;99.90
35541;DHT22;21650;48.840;9.162;2023-04-24T04:46:34;10.20;99.90
35541;DHT22;21650;48.840;9.162;2023-04-24T04:49:01;10.20;99.90
35541;DHT22;21650;48.840;9.162;2023-04-24T04:51:28;10.10;99.90
35541;DHT22;21650;48.840;9.162;2023-04-24T04:53:53;10.10;99.90
35541;DHT22;21650;48.840;9.162;2023-04-24T04:56:19;10.20;99.90
35541;DHT22;21650;48.840;9.162;2023-04-24T04:58:45;10.20;99.90
35541;DHT22;21650;48.840;9.162;2023-04-24T05:01:10;10.10;99.90
35541;DHT22;21650;48.840;9.162;2023-04-24T05:03:36;10.00;99.90
35541;DHT22;21650;48.840;9.162;2023-04-24T05:06:02;10.00;99.90
35541;DHT22;21650;48.840;9.162;2023-04-24T05:08:28;10.00;99.90
35541;DHT22;21650;48.840;9.162;2023-04-24T05:10:54;10.10;99.90
35541;DHT22;21650;48.840;9.162;2023-04-24T05:13:20;10.00;99.90
35541;DHT22;21650;48.840;9.162;2023-04-24T05:15:46;10.00;99.90
35541;DHT22;21650;48.840;9.162;2023-04-24T05:18:12;9.90;99.90
35541;DHT22;21650;48.840;9.162;2023-04-24T05:20:37;9.90;99.90
35541;DHT22;21650;48.840;9.162;2023-04-24T05:23:03;9.90;99.90
35541;DHT22;21650;48.840;9.162;2023-04-24T05:25:28;9.80;99.90
35541;DHT22;21650;48.840;9.162;2023-04-24T05:27:54;9.80;99.90
35541;DHT22;21650;48.840;9.162;2023-04-24T05:30:20;9.80;99.90
35541;DHT22;21650;48.840;9.162;2023-04-24T05:32:45;9.90;99.90
35541;DHT22;21650;48.840;9.162;2023-04-24T05:35:11;10.00;99.90
35541;DHT22;21650;48.840;9.162;2023-04-24T05:37:37;10.00;99.90
35541;DHT22;21650;48.840;9.162;2023-04-24T05:40:03;10.00;99.90
35541;DHT22;21650;48.840;9.162;2023-04-24T05:42:31;9.90;99.90
35541;DHT22;21650;48.840;9.162;2023-04-24T05:44:56;10.00;99.90
35541;DHT22;21650;48.840;9.162;2023-04-24T05:47:22;9.80;99.90
35541;DHT22;21650;48.840;9.162;2023-04-24T05:49:48;9.80;99.90
35541;DHT22;21650;48.840;9.162;2023-04-24T05:52:13;9.80;99.90
35541;DHT22;21650;48.840;9.162;2023-04-24T05:54:39;9.80;99.90
35541;DHT22;21650;48.840;9.162;2023-04-24T05:57:04;9.80;99.90
35541;DHT22;21650;48.840;9.162;2023-04-24T05:59:36;9.90;99.90
35541;DHT22;21650;48.840;9.162;2023-04-24T06:02:03;9.90;99.90
35541;DHT22;21650;48.840;9.162;2023-04-24T06:04:28;10.00;99.90
35541;DHT22;21650;48.840;9.162;2023-04-24T06:06:54;9.90;99.90
35541;DHT22;21650;48.840;9.162;2023-04-24T06:09:24;9.90;99.90
35541;DHT22;21650;48.840;9.162;2023-04-24T06:11:51;10.00;99.90
35541;DHT22;21650;48.840;9.162;2023-04-24T06:14:19;10.00;99.90
35541;DHT22;21650;48.840;9.162;2023-04-24T06:16:44;9.90;99.90
35541;DHT22;21650;48.840;9.162;2023-04-24T06:19:10;10.00;99.90
35541;DHT22;21650;48.840;9.162;2023-04-24T06:21:36;10.00;99.90
35541;DHT22;21650;48.840;9.162;2023-04-24T06:24:02;10.20;99.90
35541;DHT22;21650;48.840;9.162;2023-04-24T06:26:29;10.50;99.90
35541;DHT22;21650;48.840;9.162;2023-04-24T06:28:55;10.70;99.90
35541;DHT22;21650;48.840;9.162;2023-04-24T06:31:21;11.00;99.90
35541;DHT22;21650;48.840;9.162;2023-04-24T06:33:47;11.00;99.90
35541;DHT22;21650;48.840;9.162;2023-04-24T06:36:13;11.10;99.90
35541;DHT22;21650;48.840;9.162;2023-04-24T06:38:38;11.30;99.90
35541;DHT22;21650;48.840;9.162;2023-04-24T06:41:04;11.30;99.90
35541;DHT22;21650;48.840;9.162;2023-04-24T06:43:31;11.40;99.90
35541;DHT22;21650;48.840;9.162;2023-04-24T06:45:57;11.40;99.90
35541;DHT22;21650;48.840;9.162;2023-04-24T06:48:24;11.40;99.90
35541;DHT22;21650;48.840;9.162;2023-04-24T06:50:50;11.50;99.90
35541;DHT22;21650;48.840;9.162;2023-04-24T06:53:16;11.40;99.90
35541;DHT22;21650;48.840;9.162;2023-04-24T06:55:42;11.50;99.90
35541;DHT22;21650;48.840;9.162;2023-04-24T06:58:08;11.60;99.90
35541;DHT22;21650;48.840;9.162;2023-04-24T07:00:34;11.60;99.90
35541;DHT22;21650;48.840;9.162;2023-04-24T07:03:00;11.50;99.90
35541;DHT22;21650;48.840;9.162;2023-04-24T07:05:25;11.60;99.90
35541;DHT22;21650;48.840;9.162;2023-04-24T07:07:51;11.70;99.90
35541;DHT22;21650;48.840;9.162;2023-04-24T07:10:17;11.80;99.90
35541;DHT22;21650;48.840;9.162;2023-04-24T07:12:43;12.00;99.90
35541;DHT22;21650;48.840;9.162;2023-04-24T07:15:09;11.80;99.90
35541;DHT22;21650;48.840;9.162;2023-04-24T07:17:35;11.80;99.90
35541;DHT22;21650;48.840;9.162;2023-04-24T07:20:04;11.80;99.90
35541;DHT22;21650;48.840;9.162;2023-04-24T07:22:30;11.60;99.90
35541;DHT22;21650;48.840;9.162;2023-04-24T07:24:55;11.70;99.90
35541;DHT22;21650;48.840;9.162;2023-04-24T07:27:21;11.60;99.90
35541;DHT22;21650;48.840;9.162;2023-04-24T07:29:46;11.70;99.90
35541;DHT22;21650;48.840;9.162;2023-04-24T07:32:12;11.80;99.90
35541;DHT22;21650;48.840;9.162;2023-04-24T07:34:38;11.80;99.90
35541;DHT22;21650;48.840;9.162;2023-04-24T07:37:03;12.10;99.90
35541;DHT22;21650;48.840;9.162;2023-04-24T07:39:29;12.40;99.90
35541;DHT22;21650;48.840;9.162;2023-04-24T07:41:55;12.40;99.90
35541;DHT22;21650;48.840;9.162;2023-04-24T07:44:20;12.40;99.90
35541;DHT22;21650;48.840;9.162;2023-04-24T07:46:46;12.40;99.90
35541;DHT22;21650;48.840;9.162;2023-04-24T07:49:12;12.50;99.90
35541;DHT22;21650;48.840;9.162;2023-04-24T07:51:38;12.40;99.90
35541;DHT22;21650;48.840;9.162;2023-04-24T07:54:05;12.30;99.90
35541;DHT22;21650;48.840;9.162;2023-04-24T07:56:33;12.10;99.90
35541;DHT22;21650;48.840;9.162;2023-04-24T07:59:00;12.30;99.90
35541;DHT22;21650;48.840;9.162;2023-04-24T08:01:26;12.60;99.90
35541;DHT22;21650;48.840;9.162;2023-04-24T08:03:52;12.50;99.90
35541;DHT22;21650;48.840;9.162;2023-04-24T08:06:18;12.40;99.90
35541;DHT22;21650;48.840;9.162;2023-04-24T08:08:43;12.50;99.90
35541;DHT22;21650;48.840;9.162;2023-04-24T08:11:09;12.60;99.90
35541;DHT22;21650;48.840;9.162;2023-04-24T08:13:35;12.70;99.90
35541;DHT22;21650;48.840;9.162;2023-04-24T08:16:00;12.70;99.90
35541;DHT22;21650;48.840;9.162;2023-04-24T08:18:26;12.40;99.90
35541;DHT22;21650;48.840;9.162;2023-04-24T08:20:52;12.40;99.90
35541;DHT22;21650;48.840;9.162;2023-04-24T08:23:17;12.10;99.90
35541;DHT22;21650;48.840;9.162;2023-04-24T08:25:43;12.10;99.90
35541;DHT22;21650;48.840;9.162;2023-04-24T08:28:09;12.10;99.90
35541;DHT22;21650;48.840;9.162;2023-04-24T08:30:36;11.80;99.90
35541;DHT22;21650;48.840;9.162;2023-04-24T08:33:01;11.70;99.90
35541;DHT22;21650;48.840;9.162;2023-04-24T08:35:27;11.60;99.90
35541;DHT22;21650;48.840;9.162;2023-04-24T08:37:53;11.80;99.90
35541;DHT22;21650;48.840;9.162;2023-04-24T08:40:25;11.90;99.90
35541;DHT22;21650;48.840;9.162;2023-04-24T08:42:54;11.90;99.90
35541;DHT22;21650;48.840;9.162;2023-04-24T08:45:22;12.00;99.90
35541;DHT22;21650;48.840;9.162;2023-04-24T08:47:48;12.00;99.90
35541;DHT22;21650;48.840;9.162;2023-04-24T08:50:15;12.00;99.90
35541;DHT22;21650;48.840;9.162;2023-04-24T08:52:42;12.00;99.90
35541;DHT22;21650;48.840;9.162;2023-04-24T08:55:08;12.10;99.90
35541;DHT22;21650;48.840;9.162;2023-04-24T08:57:33;12.00;99.90
35541;DHT22;21650;48.840;9.162;2023-04-24T09:00:01;12.10;99.90
35541;DHT22;21650;48.840;9.162;2023-04-24T09:02:27;12.00;99.90
35541;DHT22;21650;48.840;9.162;2023-04-24T09:04:56;12.10;99.90
35541;DHT22;21650;48.840;9.162;2023-04-24T09:07:23;12.50;99.90
35541;DHT22;21650;48.840;9.162;2023-04-24T09:09:50;12.40;99.90
35541;DHT22;21650;48.840;9.162;2023-04-24T09:12:17;12.20;99.90
35541;DHT22;21650;48.840;9.162;2023-04-24T09:14:43;12.60;99.90
35541;DHT22;21650;48.840;9.162;2023-04-24T09:17:11;12.60;99.90
35541;DHT22;21650;48.840;9.162;2023-04-24T09:19:36;12.40;99.90
35541;DHT22;21650;48.840;9.162;2023-04-24T09:22:06;12.10;99.90
35541;DHT22;21650;48.840;9.162;2023-04-24T09:24:33;11.70;99.90
35541;DHT22;21650;48.840;9.162;2023-04-24T09:26:59;11.40;99.90
35541;DHT22;21650;48.840;9.162;2023-04-24T09:29:27;11.20;99.90
35541;DHT22;21650;48.840;9.162;2023-04-24T09:31:53;11.30;99.90
35541;DHT22;21650;48.840;9.162;2023-04-24T09:34:26;11.40;99.90
35541;DHT22;21650;48.840;9.162;2023-04-24T09:36:52;11.70;99.90
35541;DHT22;21650;48.840;9.162;2023-04-24T09:39:19;11.70;99.90
35541;DHT22;21650;48.840;9.162;2023-04-24T09:41:52;11.70;99.90
35541;DHT22;21650;48.840;9.162;2023-04-24T09:44:23;12.20;99.90
35541;DHT22;21650;48.840;9.162;2023-04-24T09:46:55;13.10;99.90
35541;DHT22;21650;48.840;9.162;2023-04-24T09:51:50;13.70;99.90
35541;DHT22;21650;48.840;9.162;2023-04-24T09:54:17;13.40;99.90
35541;DHT22;21650;48.840;9.162;2023-04-24T09:56:45;13.10;99.90
35541;DHT22;21650;48.840;9.162;2023-04-24T09:59:12;12.50;99.90
35541;DHT22;21650;48.840;9.162;2023-04-24T10:01:38;13.20;99.90
35541;DHT22;21650;48.840;9.162;2023-04-24T10:04:18;13.30;99.90
35541;DHT22;21650;48.840;9.162;2023-04-24T10:06:45;13.00;99.90
35541;DHT22;21650;48.840;9.162;2023-04-24T10:09:11;12.80;99.90
35541;DHT22;21650;48.840;9.162;2023-04-24T10:11:41;12.80;99.90
35541;DHT22;21650;48.840;9.162;2023-04-24T10:14:10;13.30;99.90
35541;DHT22;21650;48.840;9.162;2023-04-24T10:16:36;13.40;99.90
35541;DHT22;21650;48.840;9.162;2023-04-24T10:19:02;13.70;99.70
35541;DHT22;21650;48.840;9.162;2023-04-24T10:21:28;13.90;99.40
35541;DHT22;21650;48.840;9.162;2023-04-24T10:23:55;13.90;99.70
35541;DHT22;21650;48.840;9.162;2023-04-24T10:26:22;13.30;99.40
35541;DHT22;21650;48.840;9.162;2023-04-24T10:28:48;13.10;99.70
35541;DHT22;21650;48.840;9.162;2023-04-24T10:31:14;12.90;99.30
35541;DHT22;21650;48.840;9.162;2023-04-24T10:33:41;12.90;99.90
35541;DHT22;21650;48.840;9.162;2023-04-24T10:36:09;12.40;99.30
35541;DHT22;21650;48.840;9.162;2023-04-24T10:38:35;12.30;99.90
35541;DHT22;21650;48.840;9.162;2023-04-24T10:41:09;12.20;99.80
35541;DHT22;21650;48.840;9.162;2023-04-24T10:43:40;12.20;99.90
35541;DHT22;21650;48.840;9.162;2023-04-24T10:46:06;12.30;99.90
35541;DHT22;21650;48.840;9.162;2023-04-24T10:48:33;12.10;99.50
35541;DHT22;21650;48.840;9.162;2023-04-24T10:50:58;12.00;99.90
35541;DHT22;21650;48.840;9.162;2023-04-24T10:53:27;12.10;99.90
35541;DHT22;21650;48.840;9.162;2023-04-24T10:56:06;12.20;99.90
35541;DHT22;21650;48.840;9.162;2023-04-24T10:58:42;12.50;99.90
35541;DHT22;21650;48.840;9.162;2023-04-24T11:01:29;12.50;99.70
35541;DHT22;21650;48.840;9.162;2023-04-24T11:03:57;12.70;99.90
35541;DHT22;21650;48.840;9.162;2023-04-24T11:06:31;12.40;99.80
35541;DHT22;21650;48.840;9.162;2023-04-24T11:09:05;12.50;99.90
35541;DHT22;21650;48.840;9.162;2023-04-24T11:11:31;12.40;99.90
35541;DHT22;21650;48.840;9.162;2023-04-24T11:16:28;13.00;99.90
35541;DHT22;21650;48.840;9.162;2023-04-24T11:27:14;13.80;98.60
35541;DHT22;21650;48.840;9.162;2023-04-24T11:29:44;13.80;98.30
35541;DHT22;21650;48.840;9.162;2023-04-24T11:37:25;13.20;99.00
35541;DHT22;21650;48.840;9.162;2023-04-24T11:39:54;13.50;98.70
35541;DHT22;21650;48.840;9.162;2023-04-24T11:42:21;13.20;98.30
35541;DHT22;21650;48.840;9.162;2023-04-24T11:44:47;13.20;98.70
35541;DHT22;21650;48.840;9.162;2023-04-24T11:47:14;13.10;99.10
35541;DHT22;21650;48.840;9.162;2023-04-24T11:49:40;12.80;99.70
35541;DHT22;21650;48.840;9.162;2023-04-24T11:52:06;12.20;99.90
35541;DHT22;21650;48.840;9.162;2023-04-24T11:54:32;12.40;99.90
35541;DHT22;21650;48.840;9.162;2023-04-24T11:56:57;12.80;99.90
35541;DHT22;21650;48.840;9.162;2023-04-24T11:59:23;13.20;99.90
35541;DHT22;21650;48.840;9.162;2023-04-24T12:01:49;13.50;99.10
35541;DHT22;21650;48.840;9.162;2023-04-24T12:04:16;13.90;98.40
35541;DHT22;21650;48.840;9.162;2023-04-24T12:07:01;13.80;98.70
35541;DHT22;21650;48.840;9.162;2023-04-24T12:09:27;14.00;97.20
35541;DHT22;21650;48.840;9.162;2023-04-24T12:11:54;14.20;97.50
35541;DHT22;21650;48.840;9.162;2023-04-24T12:14:23;14.00;98.00
35541;DHT22;21650;48.840;9.162;2023-04-24T12:16:50;13.50;98.40
35541;DHT22;21650;48.840;9.162;2023-04-24T12:19:21;12.90;99.80
35541;DHT22;21650;48.840;9.162;2023-04-24T12:22:02;12.90;99.70
35541;DHT22;21650;48.840;9.162;2023-04-24T12:24:29;12.80;99.90
35541;DHT22;21650;48.840;9.162;2023-04-24T12:26:56;13.10;99.90
35541;DHT22;21650;48.840;9.162;2023-04-24T12:29:22;13.50;99.90
35541;DHT22;21650;48.840;9.162;2023-04-24T12:31:48;13.80;99.00
35541;DHT22;21650;48.840;9.162;2023-04-24T12:34:21;13.80;98.70
35541;DHT22;21650;48.840;9.162;2023-04-24T12:36:47;13.60;98.80
35541;DHT22;21650;48.840;9.162;2023-04-24T12:39:17;13.30;99.20
35541;DHT22;21650;48.840;9.162;2023-04-24T12:41:56;13.30;99.30
35541;DHT22;21650;48.840;9.162;2023-04-24T12:44:32;13.20;98.70
35541;DHT22;21650;48.840;9.162;2023-04-24T12:47:00;13.20;98.80
35541;DHT22;21650;48.840;9.162;2023-04-24T12:49:26;13.00;98.90
35541;DHT22;21650;48.840;9.162;2023-04-24T12:51:52;12.60;99.80
35541;DHT22;21650;48.840;9.162;2023-04-24T12:54:18;12.60;99.90
35541;DHT22;21650;48.840;9.162;2023-04-24T12:56:43;12.70;99.90
35541;DHT22;21650;48.840;9.162;2023-04-24T12:59:09;12.70;99.90
35541;DHT22;21650;48.840;9.162;2023-04-24T13:01:35;12.60;99.90
35541;DHT22;21650;48.840;9.162;2023-04-24T13:04:00;12.60;99.90
35541;DHT22;21650;48.840;9.162;2023-04-24T13:06:26;12.70;99.90
35541;DHT22;21650;48.840;9.162;2023-04-24T13:08:52;13.00;99.90
35541;DHT22;21650;48.840;9.162;2023-04-24T13:11:17;13.20;99.90
35541;DHT22;21650;48.840;9.162;2023-04-24T13:13:43;13.20;99.90
35541;DHT22;21650;48.840;9.162;2023-04-24T13:16:09;13.30;99.90
35541;DHT22;21650;48.840;9.162;2023-04-24T13:18:34;13.10;99.90
35541;DHT22;21650;48.840;9.162;2023-04-24T13:21:00;13.00;99.90
35541;DHT22;21650;48.840;9.162;2023-04-24T13:23:26;13.00;99.90
35541;DHT22;21650;48.840;9.162;2023-04-24T13:25:51;12.90;99.90
35541;DHT22;21650;48.840;9.162;2023-04-24T13:28:17;13.00;99.90
35541;DHT22;21650;48.840;9.162;2023-04-24T13:30:43;13.00;99.90
35541;DHT22;21650;48.840;9.162;2023-04-24T13:33:09;13.20;99.90
35541;DHT22;21650;48.840;9.162;2023-04-24T13:35:34;13.00;99.90
35541;DHT22;21650;48.840;9.162;2023-04-24T13:38:00;12.20;99.90
35541;DHT22;21650;48.840;9.162;2023-04-24T13:40:27;12.20;99.90
35541;DHT22;21650;48.840;9.162;2023-04-24T13:42:52;12.20;99.90
35541;DHT22;21650;48.840;9.162;2023-04-24T13:45:18;12.10;99.90
35541;DHT22;21650;48.840;9.162;2023-04-24T13:47:44;12.40;99.90
35541;DHT22;21650;48.840;9.162;2023-04-24T13:50:10;12.60;99.90
35541;DHT22;21650;48.840;9.162;2023-04-24T13:52:35;13.10;99.90
35541;DHT22;21650;48.840;9.162;2023-04-24T13:55:01;13.30;99.90
35541;DHT22;21650;48.840;9.162;2023-04-24T13:57:26;13.90;99.90
35541;DHT22;21650;48.840;9.162;2023-04-24T13:59:53;14.40;99.90
35541;DHT22;21650;48.840;9.162;2023-04-24T14:02:20;13.90;99.90
35541;DHT22;21650;48.840;9.162;2023-04-24T14:04:46;13.80;99.90
35541;DHT22;21650;48.840;9.162;2023-04-24T14:07:13;13.50;99.90
35541;DHT22;21650;48.840;9.162;2023-04-24T14:09:39;13.30;99.90
35541;DHT22;21650;48.840;9.162;2023-04-24T14:12:04;13.40;99.90
35541;DHT22;21650;48.840;9.162;2023-04-24T14:14:31;13.90;99.90
35541;DHT22;21650;48.840;9.162;2023-04-24T14:16:57;13.80;99.90
35541;DHT22;21650;48.840;9.162;2023-04-24T14:19:23;13.50;99.90
35541;DHT22;21650;48.840;9.162;2023-04-24T14:21:49;13.20;99.90
35541;DHT22;21650;48.840;9.162;2023-04-24T14:24:14;13.20;99.90
35541;DHT22;21650;48.840;9.162;2023-04-24T14:26:41;13.50;99.90
35541;DHT22;21650;48.840;9.162;2023-04-24T14:29:06;13.90;99.90
35541;DHT22;21650;48.840;9.162;2023-04-24T14:31:32;14.30;99.90
35541;DHT22;21650;48.840;9.162;2023-04-24T14:33:57;14.70;99.90
35541;DHT22;21650;48.840;9.162;2023-04-24T14:36:24;14.50;99.50
35541;DHT22;21650;48.840;9.162;2023-04-24T14:38:49;14.10;99.70
35541;DHT22;21650;48.840;9.162;2023-04-24T14:41:16;13.80;99.90
35541;DHT22;21650;48.840;9.162;2023-04-24T14:43:41;13.80;99.90
35541;DHT22;21650;48.840;9.162;2023-04-24T14:46:07;13.50;99.90
35541;DHT22;21650;48.840;9.162;2023-04-24T14:48:33;13.40;99.90
35541;DHT22;21650;48.840;9.162;2023-04-24T14:50:58;13.50;99.90
35541;DHT22;21650;48.840;9.162;2023-04-24T14:53:24;13.60;99.90
35541;DHT22;21650;48.840;9.162;2023-04-24T14:55:49;13.40;99.90
35541;DHT22;21650;48.840;9.162;2023-04-24T14:58:15;13.30;99.90
35541;DHT22;21650;48.840;9.162;2023-04-24T15:00:41;13.20;99.90
35541;DHT22;21650;48.840;9.162;2023-04-24T15:03:06;14.20;99.90
35541;DHT22;21650;48.840;9.162;2023-04-24T15:05:32;14.60;98.60
35541;DHT22;21650;48.840;9.162;2023-04-24T15:07:58;15.00;99.20
35541;DHT22;21650;48.840;9.162;2023-04-24T15:10:23;14.90;98.70
35541;DHT22;21650;48.840;9.162;2023-04-24T15:12:51;14.40;98.50
35541;DHT22;21650;48.840;9.162;2023-04-24T15:15:16;13.90;98.90
35541;DHT22;21650;48.840;9.162;2023-04-24T15:17:42;13.60;99.30
35541;DHT22;21650;48.840;9.162;2023-04-24T15:20:08;13.00;99.70
35541;DHT22;21650;48.840;9.162;2023-04-24T15:22:34;13.30;99.90
35541;DHT22;21650;48.840;9.162;2023-04-24T15:24:59;13.30;99.90
35541;DHT22;21650;48.840;9.162;2023-04-24T15:27:26;13.00;99.90
35541;DHT22;21650;48.840;9.162;2023-04-24T15:29:51;12.90;99.90
35541;DHT22;21650;48.840;9.162;2023-04-24T15:32:18;12.40;99.90
35541;DHT22;21650;48.840;9.162;2023-04-24T15:34:44;12.20;99.90
35541;DHT22;21650;48.840;9.162;2023-04-24T15:37:09;12.30;99.90
35541;DHT22;21650;48.840;9.162;2023-04-24T15:39:35;12.50;99.90
35541;DHT22;21650;48.840;9.162;2023-04-24T15:42:01;12.80;99.90
35541;DHT22;21650;48.840;9.162;2023-04-24T15:44:26;12.90;99.90
35541;DHT22;21650;48.840;9.162;2023-04-24T15:46:52;13.10;99.90